createdAt,value
2022-08-02T00:01:17.277Z,9.70
2022-08-02T00:03:42.478Z,11.70
2022-08-02T00:06:05.350Z,7.70
2022-08-02T00:08:28.108Z,7.10
2022-08-02T00:10:51.001Z,6.90
2022-08-02T00:13:16.129Z,6.60
2022-08-02T00:15:39.184Z,7.60
2022-08-02T00:18:01.929Z,12.00
2022-08-02T00:20:24.608Z,6.00
2022-08-02T00:22:47.324Z,7.60
2022-08-02T00:25:13.153Z,7.40
2022-08-02T00:27:35.791Z,10.00
2022-08-02T00:30:00.793Z,10.70
2022-08-02T00:32:24.198Z,6.30
2022-08-02T00:34:47.005Z,6.40
2022-08-02T00:37:11.801Z,7.30
2022-08-02T00:39:35.897Z,6.60
2022-08-02T00:41:59.473Z,6.60
2022-08-02T00:44:24.658Z,6.40
2022-08-02T00:46:50.266Z,8.50
2022-08-02T00:49:13.586Z,6.90
2022-08-02T00:51:42.049Z,6.00
2022-08-02T00:54:05.161Z,6.60
2022-08-02T00:56:30.907Z,6.20
2022-08-02T00:58:54.281Z,7.30
2022-08-02T01:01:17.107Z,6.00
2022-08-02T01:03:42.610Z,6.30
2022-08-02T01:06:13.385Z,6.90
2022-08-02T01:08:39.912Z,8.00
2022-08-02T01:11:02.635Z,8.20
2022-08-02T01:13:28.460Z,7.10
2022-08-02T01:15:58.563Z,6.70
2022-08-02T01:18:40.699Z,8.10
2022-08-02T01:21:12.523Z,7.50
2022-08-02T01:23:54.421Z,7.10
2022-08-02T01:26:32.464Z,9.80
2022-08-02T01:28:58.361Z,8.00
2022-08-02T01:31:30.850Z,8.50
2022-08-02T01:34:06.374Z,8.50
2022-08-02T01:36:35.092Z,7.30
2022-08-02T01:39:01.288Z,7.80
2022-08-02T01:41:26.291Z,6.70
2022-08-02T01:43:53.131Z,6.90
2022-08-02T01:46:17.337Z,7.10
2022-08-02T01:48:41.116Z,6.60
2022-08-02T01:51:04.375Z,7.40
2022-08-02T01:53:27.646Z,9.30
2022-08-02T01:55:57.573Z,6.00
2022-08-02T01:58:25.088Z,13.10
2022-08-02T02:00:48.451Z,8.00
2022-08-02T02:03:15.906Z,6.90
2022-08-02T02:05:42.105Z,6.60
2022-08-02T02:08:06.424Z,6.40
2022-08-02T02:10:33.364Z,7.60
2022-08-02T02:12:56.913Z,7.50
2022-08-02T02:15:23.205Z,7.30
2022-08-02T02:17:53.101Z,6.50
2022-08-02T02:20:30.051Z,6.30
2022-08-02T02:22:53.341Z,6.80
2022-08-02T02:25:19.504Z,7.10
2022-08-02T02:28:08.037Z,7.20
2022-08-02T02:30:33.904Z,7.60
2022-08-02T02:33:00.466Z,7.50
2022-08-02T02:35:25.409Z,6.70
2022-08-02T02:37:49.737Z,9.00
2022-08-02T02:40:15.790Z,7.30
2022-08-02T02:42:41.395Z,7.00
2022-08-02T02:45:04.629Z,10.50
2022-08-02T02:47:40.324Z,7.80
2022-08-02T02:50:04.674Z,7.20
2022-08-02T02:52:27.472Z,6.60
2022-08-02T02:54:51.006Z,7.10
2022-08-02T02:57:14.243Z,8.20
2022-08-02T02:59:49.087Z,6.30
2022-08-02T03:02:12.699Z,10.00
2022-08-02T03:04:56.739Z,7.90
2022-08-02T03:07:19.377Z,7.30
2022-08-02T03:09:45.975Z,8.40
2022-08-02T03:12:20.050Z,6.90
2022-08-02T03:14:45.581Z,7.70
2022-08-02T03:17:12.248Z,6.90
2022-08-02T03:19:35.189Z,9.50
2022-08-02T03:21:58.119Z,6.90
2022-08-02T03:24:27.680Z,8.00
2022-08-02T03:26:51.075Z,7.80
2022-08-02T03:29:13.753Z,6.60
2022-08-02T03:31:37.584Z,8.10
2022-08-02T03:34:03.040Z,7.00
2022-08-02T03:36:27.587Z,9.50
2022-08-02T03:38:51.437Z,8.50
2022-08-02T03:41:16.778Z,6.90
2022-08-02T03:43:40.382Z,8.50
2022-08-02T03:46:03.660Z,7.10
2022-08-02T03:48:34.587Z,6.90
2022-08-02T03:50:58.105Z,8.90
2022-08-02T03:53:21.197Z,7.20
2022-08-02T03:55:44.561Z,7.20
2022-08-02T03:58:07.513Z,7.10
2022-08-02T04:00:30.183Z,6.70
2022-08-02T04:02:52.945Z,6.60
2022-08-02T04:05:19.031Z,6.60
2022-08-02T04:08:34.489Z,8.30
2022-08-02T04:10:24.826Z,7.40
2022-08-02T04:12:47.857Z,7.60
2022-08-02T04:15:12.573Z,7.20
2022-08-02T04:17:38.109Z,6.90
2022-08-02T04:20:02.754Z,10.30
2022-08-02T04:22:25.605Z,7.80
2022-08-02T04:24:52.213Z,7.50
2022-08-02T04:27:51.219Z,9.20
2022-08-02T04:30:00.266Z,8.40
2022-08-02T04:32:23.463Z,6.90
2022-08-02T04:35:17.732Z,7.50
2022-08-02T04:37:33.700Z,8.50
2022-08-02T04:39:56.551Z,6.60
2022-08-02T04:42:23.141Z,8.20
2022-08-02T04:44:45.659Z,6.70
2022-08-02T04:47:08.198Z,6.60
2022-08-02T04:49:31.108Z,8.00
2022-08-02T04:51:53.961Z,8.20
2022-08-02T04:54:16.723Z,6.30
2022-08-02T04:56:39.763Z,8.80
2022-08-02T04:59:05.107Z,7.40
2022-08-02T05:01:29.865Z,7.50
2022-08-02T05:03:52.778Z,6.90
2022-08-02T05:06:19.300Z,6.40
2022-08-02T05:08:44.854Z,6.70
2022-08-02T05:11:18.263Z,6.50
2022-08-02T05:13:58.616Z,7.50
2022-08-02T05:16:21.947Z,7.50
2022-08-02T05:18:54.433Z,6.70
2022-08-02T05:21:17.854Z,7.50
2022-08-02T05:23:40.434Z,6.90
2022-08-02T05:26:03.012Z,6.70
2022-08-02T05:28:26.120Z,6.40
2022-08-02T05:30:48.851Z,5.00
2022-08-02T05:33:12.483Z,7.50
2022-08-02T05:35:35.296Z,6.10
2022-08-02T05:37:58.519Z,8.50
2022-08-02T05:40:25.457Z,8.50
2022-08-02T05:42:49.300Z,6.00
2022-08-02T05:45:14.514Z,7.20
2022-08-02T05:47:39.733Z,7.30
2022-08-02T05:50:04.489Z,8.40
2022-08-02T05:52:30.437Z,5.00
2022-08-02T05:55:07.521Z,7.30
2022-08-02T05:57:55.639Z,5.00
2022-08-02T06:00:23.641Z,5.30
2022-08-02T06:02:49.135Z,4.60
2022-08-02T06:05:13.024Z,5.80
2022-08-02T06:07:36.808Z,5.80
2022-08-02T06:10:00.060Z,5.60
2022-08-02T06:12:25.613Z,6.40
2022-08-02T06:14:54.506Z,6.10
2022-08-02T06:17:18.280Z,6.00
2022-08-02T06:19:51.495Z,9.60
2022-08-02T06:22:32.694Z,3.50
2022-08-02T06:24:59.756Z,3.20
2022-08-02T06:27:28.220Z,2.90
2022-08-02T06:29:51.286Z,4.70
2022-08-02T06:32:16.698Z,4.20
2022-08-02T06:34:40.407Z,4.60
2022-08-02T06:37:09.289Z,2.80
2022-08-02T06:39:35.390Z,3.00
2022-08-02T06:41:59.428Z,3.00
2022-08-02T06:47:12.125Z,2.50
2022-08-02T06:49:51.988Z,2.80
2022-08-02T06:52:19.120Z,2.40
2022-08-02T06:54:44.324Z,2.70
2022-08-02T06:57:07.046Z,3.20
2022-08-02T06:59:29.696Z,3.10
2022-08-02T07:01:55.560Z,3.50
2022-08-02T07:04:20.238Z,2.50
2022-08-02T07:06:43.181Z,4.90
2022-08-02T07:09:22.030Z,1.90
2022-08-02T07:11:45.365Z,2.10
2022-08-02T07:14:07.991Z,4.40
2022-08-02T07:16:33.091Z,2.30
2022-08-02T07:18:55.971Z,2.60
2022-08-02T07:21:18.819Z,2.00
2022-08-02T07:24:01.611Z,4.10
2022-08-02T07:26:26.614Z,4.30
2022-08-02T07:28:49.388Z,2.50
2022-08-02T07:31:14.984Z,2.40
2022-08-02T07:33:42.362Z,3.30
2022-08-02T07:36:16.727Z,2.60
2022-08-02T07:38:43.442Z,3.00
2022-08-02T07:41:10.845Z,2.80
2022-08-02T07:43:34.308Z,2.70
2022-08-02T07:46:00.715Z,2.90
2022-08-02T07:48:26.439Z,2.70
2022-08-02T07:50:49.720Z,3.30
2022-08-02T07:53:12.570Z,4.70
2022-08-02T07:55:39.535Z,2.70
2022-08-02T07:58:04.926Z,4.00
2022-08-02T08:00:27.627Z,3.00
2022-08-02T08:02:50.334Z,3.70
2022-08-02T08:05:16.036Z,3.70
2022-08-02T08:07:39.204Z,3.90
2022-08-02T08:10:02.351Z,2.10
2022-08-02T08:12:24.953Z,3.80
2022-08-02T08:14:47.744Z,4.00
2022-08-02T08:17:15.204Z,2.90
2022-08-02T08:19:51.104Z,3.90
2022-08-02T08:22:15.237Z,3.50
2022-08-02T08:24:38.892Z,4.20
2022-08-02T08:27:03.710Z,2.80
2022-08-02T08:29:29.622Z,3.90
2022-08-02T08:31:52.531Z,2.80
2022-08-02T08:34:17.802Z,3.40
2022-08-02T08:36:43.193Z,3.30
2022-08-02T08:39:06.245Z,3.20
2022-08-02T08:41:31.274Z,5.10
2022-08-02T08:43:56.249Z,4.10
2022-08-02T08:46:24.974Z,4.50
2022-08-02T08:48:49.926Z,3.20
2022-08-02T08:51:18.603Z,4.40
2022-08-02T08:53:46.389Z,3.30
2022-08-02T08:56:15.747Z,3.40
2022-08-02T08:58:39.974Z,3.10
2022-08-02T09:01:02.768Z,3.10
2022-08-02T09:03:25.678Z,3.90
2022-08-02T09:05:48.826Z,2.10
2022-08-02T09:08:16.514Z,2.80
2022-08-02T09:10:39.888Z,2.70
2022-08-02T09:13:31.370Z,4.00
2022-08-02T09:16:11.692Z,3.10
2022-08-02T09:18:40.121Z,3.80
2022-08-02T09:21:09.273Z,2.60
2022-08-02T09:23:38.338Z,3.50
2022-08-02T09:26:05.739Z,2.60
2022-08-02T09:28:36.809Z,3.60
2022-08-02T09:31:06.927Z,3.50
2022-08-02T09:33:29.558Z,3.30
2022-08-02T09:36:06.796Z,3.60
2022-08-02T09:38:31.170Z,3.00
2022-08-02T09:40:53.952Z,3.50
2022-08-02T09:43:17.394Z,3.10
2022-08-02T09:45:40.599Z,2.20
2022-08-02T09:48:09.818Z,2.90
2022-08-02T09:50:32.470Z,3.20
2022-08-02T09:52:56.469Z,2.50
2022-08-02T09:55:22.155Z,4.40
2022-08-02T09:57:51.343Z,3.00
2022-08-02T10:00:23.356Z,2.50
2022-08-02T10:03:07.023Z,2.60
2022-08-02T10:05:30.963Z,4.30
2022-08-02T10:07:59.955Z,2.60
2022-08-02T10:10:22.523Z,3.20
2022-08-02T10:12:45.212Z,3.00
2022-08-02T10:15:08.336Z,3.70
2022-08-02T10:17:33.710Z,3.10
2022-08-02T10:20:01.833Z,3.80
2022-08-02T10:22:27.675Z,3.90
2022-08-02T10:24:53.419Z,3.00
2022-08-02T10:27:20.417Z,4.10
2022-08-02T10:29:53.417Z,4.70
2022-08-02T10:32:24.427Z,3.60
2022-08-02T10:35:02.672Z,4.30
2022-08-02T10:37:46.228Z,6.30
2022-08-02T10:40:23.194Z,4.50
2022-08-02T10:42:49.319Z,5.60
2022-08-02T10:45:15.449Z,7.50
2022-08-02T10:47:38.550Z,3.70
2022-08-02T10:50:01.352Z,4.40
2022-08-02T10:52:24.917Z,4.30
2022-08-02T10:55:14.572Z,4.80
2022-08-02T10:57:49.869Z,3.30
2022-08-02T11:00:26.754Z,4.40
2022-08-02T11:02:53.331Z,4.80
2022-08-02T11:05:27.675Z,5.30
2022-08-02T11:08:18.962Z,6.60
2022-08-02T11:10:41.741Z,4.40
2022-08-02T11:13:04.385Z,4.60
2022-08-02T11:15:27.279Z,2.90
2022-08-02T11:18:01.722Z,3.30
2022-08-02T11:20:25.070Z,3.90
2022-08-02T11:22:48.514Z,4.20
2022-08-02T11:25:23.993Z,2.70
2022-08-02T11:27:47.087Z,4.40
2022-08-02T11:30:13.135Z,4.90
2022-08-02T11:32:38.317Z,4.00
2022-08-02T11:35:03.417Z,3.70
2022-08-02T11:37:35.302Z,4.00
2022-08-02T11:39:58.592Z,6.50
2022-08-02T11:42:21.859Z,7.10
2022-08-02T11:44:46.824Z,5.00
2022-08-02T11:47:09.555Z,4.10
2022-08-02T11:49:34.550Z,4.90
2022-08-02T11:52:05.554Z,4.40
2022-08-02T11:54:32.636Z,3.30
2022-08-02T11:57:14.433Z,3.70
2022-08-02T11:59:44.878Z,5.20
2022-08-02T12:02:09.874Z,3.70
2022-08-02T12:04:33.426Z,3.20
2022-08-02T12:06:59.896Z,3.40
2022-08-02T12:09:24.859Z,4.00
2022-08-02T12:11:53.600Z,3.40
2022-08-02T12:14:16.276Z,4.00
2022-08-02T12:16:58.746Z,3.20
2022-08-02T12:19:26.748Z,3.90
2022-08-02T12:22:09.116Z,3.30
2022-08-02T12:24:32.137Z,3.40
2022-08-02T12:26:57.399Z,6.60
2022-08-02T12:29:58.594Z,5.10
2022-08-02T12:32:23.598Z,4.00
2022-08-02T12:35:00.714Z,4.10
2022-08-02T12:37:26.402Z,4.20
2022-08-02T12:39:51.400Z,5.40
2022-08-02T12:42:15.978Z,3.70
2022-08-02T12:44:49.635Z,3.80
2022-08-02T12:47:12.341Z,5.20
2022-08-02T12:49:38.236Z,5.40
2022-08-02T12:52:20.186Z,3.70
2022-08-02T12:54:42.798Z,4.40
2022-08-02T12:57:12.590Z,4.30
2022-08-02T12:59:39.174Z,5.70
2022-08-02T13:02:09.287Z,4.90
2022-08-02T13:04:34.984Z,4.60
2022-08-02T13:06:57.582Z,4.50
2022-08-02T13:09:27.225Z,9.60
2022-08-02T13:11:52.339Z,7.30
2022-08-02T13:14:15.809Z,3.90
2022-08-02T13:16:38.554Z,3.40
2022-08-02T13:19:01.196Z,3.50
2022-08-02T13:21:39.885Z,3.20
2022-08-02T13:24:06.762Z,3.10
2022-08-02T13:26:49.432Z,3.70
2022-08-02T13:29:14.759Z,3.60
2022-08-02T13:31:38.790Z,4.40
2022-08-02T13:34:01.818Z,3.10
2022-08-02T13:36:24.661Z,5.60
2022-08-02T13:38:52.364Z,3.30
2022-08-02T13:41:15.193Z,3.50
2022-08-02T13:43:54.727Z,4.50
2022-08-02T13:46:29.360Z,3.90
2022-08-02T13:48:55.574Z,4.30
2022-08-02T13:51:18.429Z,4.20
2022-08-02T13:53:41.156Z,3.30
2022-08-02T13:56:04.228Z,3.60
2022-08-02T13:58:26.981Z,4.00
2022-08-02T14:00:54.638Z,2.90
2022-08-02T14:03:17.333Z,3.80
2022-08-02T14:05:47.329Z,4.40
2022-08-02T14:08:16.531Z,3.00
2022-08-02T14:10:40.133Z,3.40
2022-08-02T14:13:05.392Z,4.20
2022-08-02T14:15:30.300Z,4.00
2022-08-02T14:17:55.685Z,3.90
2022-08-02T14:20:23.019Z,4.70
2022-08-02T14:22:53.992Z,3.90
2022-08-02T14:25:17.174Z,3.60
2022-08-02T14:27:41.944Z,4.30
2022-08-02T14:30:07.035Z,4.50
2022-08-02T14:32:32.753Z,4.50
2022-08-02T14:34:58.058Z,4.50
2022-08-02T14:37:20.750Z,3.70
2022-08-02T14:39:59.722Z,4.40
2022-08-02T14:42:23.403Z,4.80
2022-08-02T14:44:46.001Z,4.50
2022-08-02T14:47:09.907Z,7.40
2022-08-02T14:49:32.740Z,6.60
2022-08-02T14:51:58.590Z,4.50
2022-08-02T14:54:30.222Z,6.30
2022-08-02T14:56:53.956Z,4.70
2022-08-02T14:59:16.674Z,4.70
2022-08-02T15:01:39.455Z,5.50
2022-08-02T15:04:02.736Z,4.70
2022-08-02T15:06:32.244Z,4.20
2022-08-02T15:08:54.955Z,5.30
2022-08-02T15:11:20.130Z,6.60
2022-08-02T15:13:42.993Z,7.30
2022-08-02T15:16:08.187Z,5.30
2022-08-02T15:18:33.393Z,6.10
2022-08-02T15:20:58.601Z,4.40
2022-08-02T15:23:21.964Z,4.60
2022-08-02T15:25:45.312Z,4.50
2022-08-02T15:28:08.234Z,4.70
2022-08-02T15:30:31.229Z,4.40
2022-08-02T15:32:53.923Z,3.80
2022-08-02T15:35:16.719Z,5.80
2022-08-02T15:37:41.926Z,3.70
2022-08-02T15:40:07.337Z,4.60
2022-08-02T15:42:32.093Z,3.70
2022-08-02T15:44:57.092Z,5.30
2022-08-02T15:47:19.774Z,4.10
2022-08-02T15:49:42.493Z,3.80
2022-08-02T15:52:05.477Z,5.20
2022-08-02T15:54:32.835Z,6.10
2022-08-02T15:56:55.448Z,6.50
2022-08-02T15:59:20.608Z,5.80
2022-08-02T16:01:48.079Z,6.10
2022-08-02T16:04:11.093Z,8.20
2022-08-02T16:06:34.358Z,5.50
2022-08-02T16:08:57.208Z,8.90
2022-08-02T16:11:22.206Z,5.50
2022-08-02T16:13:53.158Z,6.00
2022-08-02T16:16:17.331Z,5.80
2022-08-02T16:18:40.175Z,4.00
2022-08-02T16:21:05.075Z,5.50
2022-08-02T16:23:58.674Z,4.50
2022-08-02T16:26:15.595Z,5.70
2022-08-02T16:28:38.303Z,3.90
2022-08-02T16:31:10.871Z,4.90
2022-08-02T16:33:36.557Z,5.50
2022-08-02T16:35:59.613Z,5.50
2022-08-02T16:38:22.399Z,4.70
2022-08-02T16:40:47.230Z,6.90
2022-08-02T16:43:10.046Z,5.00
2022-08-02T16:45:32.813Z,6.70
2022-08-02T16:48:00.475Z,6.50
2022-08-02T16:50:28.969Z,4.70
2022-08-02T16:52:52.301Z,4.30
2022-08-02T16:55:15.297Z,7.10
2022-08-02T16:57:43.318Z,4.80
2022-08-02T17:00:10.393Z,3.90
2022-08-02T17:02:33.225Z,5.50
2022-08-02T17:05:03.345Z,5.40
2022-08-02T17:08:06.496Z,5.00
2022-08-02T17:10:09.859Z,5.80
2022-08-02T17:12:33.708Z,6.70
2022-08-02T17:15:00.720Z,4.20
2022-08-02T17:17:34.582Z,4.80
2022-08-02T17:19:58.102Z,4.70
2022-08-02T17:22:23.432Z,3.30
2022-08-02T17:24:48.741Z,4.10
2022-08-02T17:27:11.823Z,3.80
2022-08-02T17:29:37.121Z,4.70
2022-08-02T17:32:11.751Z,3.80
2022-08-02T17:34:37.656Z,5.50
2022-08-02T17:37:00.499Z,5.40
2022-08-02T17:39:33.440Z,6.80
2022-08-02T17:41:59.269Z,7.80
2022-08-02T17:44:37.697Z,6.20
2022-08-02T17:47:01.311Z,6.30
2022-08-02T17:49:27.496Z,6.90
2022-08-02T17:52:48.320Z,6.20
2022-08-02T17:54:36.218Z,5.20
2022-08-02T17:56:59.621Z,7.40
2022-08-02T17:59:31.153Z,6.00
2022-08-02T18:02:05.493Z,7.90
2022-08-02T18:04:29.057Z,7.00
2022-08-02T18:06:53.076Z,5.50
2022-08-02T18:09:16.908Z,5.00
2022-08-02T18:11:52.101Z,4.10
2022-08-02T18:14:17.990Z,5.00
2022-08-02T18:16:41.265Z,5.70
2022-08-02T18:19:04.518Z,7.20
2022-08-02T18:21:33.288Z,6.10
2022-08-02T18:23:58.629Z,5.50
2022-08-02T18:26:24.298Z,5.40
2022-08-02T18:28:49.519Z,5.00
2022-08-02T18:31:22.572Z,7.20
2022-08-02T18:33:55.681Z,6.30
2022-08-02T18:36:24.587Z,9.90
2022-08-02T18:38:50.406Z,12.00
2022-08-02T18:41:13.224Z,8.00
2022-08-02T18:43:39.357Z,6.00
2022-08-02T18:46:15.327Z,7.70
2022-08-02T18:48:44.301Z,7.70
2022-08-02T18:51:10.605Z,7.10
2022-08-02T18:53:41.359Z,7.10
2022-08-02T18:56:05.576Z,8.80
2022-08-02T18:58:29.178Z,8.40
2022-08-02T19:00:54.551Z,34.50
2022-08-02T19:03:19.273Z,13.20
2022-08-02T19:05:51.653Z,13.50
2022-08-02T19:08:16.926Z,13.80
2022-08-02T19:10:49.176Z,17.70
2022-08-02T19:13:17.404Z,12.50
2022-08-02T19:15:40.527Z,17.20
2022-08-02T19:18:08.706Z,17.60
2022-08-02T19:20:33.091Z,14.00
2022-08-02T19:22:56.351Z,14.60
2022-08-02T19:25:19.124Z,11.70
2022-08-02T19:27:41.844Z,16.00
2022-08-02T19:30:10.784Z,19.90
2022-08-02T19:32:40.742Z,19.20
2022-08-02T19:35:29.564Z,44.30
2022-08-02T19:37:53.694Z,19.00
2022-08-02T19:40:24.348Z,18.40
2022-08-02T19:44:21.739Z,9.10
2022-08-02T19:45:50.972Z,10.40
2022-08-02T19:48:16.736Z,23.30
2022-08-02T19:50:40.269Z,22.00
2022-08-02T19:53:07.626Z,29.10
2022-08-02T19:55:58.256Z,32.10
2022-08-02T19:58:19.641Z,13.70
2022-08-02T20:00:46.613Z,23.90
2022-08-02T20:03:10.052Z,22.50
2022-08-02T20:05:39.009Z,22.10
2022-08-02T20:08:02.816Z,16.10
2022-08-02T20:10:30.070Z,12.30
2022-08-02T20:12:56.316Z,20.90
2022-08-02T20:15:19.456Z,17.10
2022-08-02T20:17:47.492Z,17.80
2022-08-02T20:20:12.630Z,16.40
2022-08-02T20:22:56.065Z,19.20
2022-08-02T20:25:20.042Z,17.70
2022-08-02T20:27:51.040Z,20.50
2022-08-02T20:30:14.243Z,16.70
2022-08-02T20:32:39.549Z,20.40
2022-08-02T20:35:18.421Z,17.90
2022-08-02T20:37:59.381Z,10.30
2022-08-02T20:40:24.896Z,12.90
2022-08-02T20:42:48.483Z,12.50
2022-08-02T20:45:13.192Z,11.30
2022-08-02T20:47:39.393Z,10.90
2022-08-02T20:50:22.237Z,13.50
2022-08-02T20:52:54.542Z,12.50
2022-08-02T20:55:17.617Z,10.70
2022-08-02T20:58:00.597Z,11.50
2022-08-02T21:00:24.182Z,15.70
2022-08-02T21:02:46.830Z,10.80
2022-08-02T21:05:17.356Z,14.90
2022-08-02T21:07:47.691Z,11.50
2022-08-02T21:10:16.171Z,9.20
2022-08-02T21:12:39.122Z,10.30
2022-08-02T21:15:04.635Z,10.40
2022-08-02T21:17:44.035Z,12.90
2022-08-02T21:20:11.119Z,10.90
2022-08-02T21:22:33.764Z,15.10
2022-08-02T21:24:58.907Z,9.30
2022-08-02T21:27:53.024Z,12.70
2022-08-02T21:30:09.725Z,14.80
2022-08-02T21:32:32.628Z,11.50
2022-08-02T21:34:56.472Z,12.10
2022-08-02T21:37:19.230Z,9.60
2022-08-02T21:39:42.103Z,9.40
2022-08-02T21:42:04.736Z,8.10
2022-08-02T21:44:27.473Z,9.30
2022-08-02T21:46:56.270Z,8.40
2022-08-02T21:49:20.416Z,7.50
2022-08-02T21:51:43.753Z,7.90
2022-08-02T21:54:18.917Z,8.30
2022-08-02T21:56:42.409Z,8.80
2022-08-02T21:59:15.964Z,8.40
2022-08-02T22:01:42.379Z,9.70
2022-08-02T22:04:16.307Z,9.10
2022-08-02T22:06:39.442Z,9.40
2022-08-02T22:09:02.463Z,9.50
2022-08-02T22:11:26.036Z,9.60
2022-08-02T22:13:48.707Z,10.50
2022-08-02T22:16:15.541Z,9.00
2022-08-02T22:18:51.322Z,9.80
2022-08-02T22:21:17.500Z,9.20
2022-08-02T22:23:50.379Z,10.20
2022-08-02T22:26:19.142Z,11.20
2022-08-02T22:28:51.994Z,11.90
2022-08-02T22:31:40.921Z,11.60
2022-08-02T22:34:11.548Z,12.00
2022-08-02T22:36:50.124Z,11.50
2022-08-02T22:39:18.751Z,10.50
2022-08-02T22:42:05.180Z,9.90
2022-08-02T22:44:25.754Z,11.30
2022-08-02T22:46:49.809Z,11.90
2022-08-02T22:49:36.829Z,10.50
2022-08-02T22:51:56.048Z,9.40
2022-08-02T22:54:21.150Z,10.80
2022-08-02T22:56:46.729Z,10.40
2022-08-02T23:01:40.911Z,10.90
2022-08-02T23:04:03.811Z,9.80
2022-08-02T23:06:26.449Z,9.40
2022-08-02T23:08:49.204Z,11.90
2022-08-02T23:11:14.356Z,10.40
2022-08-02T23:13:37.025Z,9.90
2022-08-02T23:16:19.122Z,10.30
2022-08-02T23:19:00.919Z,9.60
2022-08-02T23:22:03.153Z,9.20
2022-08-02T23:24:27.272Z,9.10
2022-08-02T23:26:52.085Z,13.70
2022-08-02T23:29:16.880Z,8.00
2022-08-02T23:31:39.751Z,11.20
2022-08-02T23:34:06.440Z,13.90
2022-08-02T23:36:29.201Z,9.50
2022-08-02T23:38:54.566Z,8.30
2022-08-02T23:41:17.283Z,9.30
2022-08-02T23:44:03.999Z,10.30
2022-08-02T23:46:30.230Z,7.90
2022-08-02T23:48:52.964Z,9.00
2022-08-02T23:51:21.984Z,7.10
2022-08-02T23:53:45.137Z,9.70
2022-08-02T23:56:07.941Z,9.20
2022-08-02T23:58:33.264Z,9.10
